createdAt,value
2018-02-03T00:00:27.707Z,96.31
2018-02-03T00:01:27.744Z,96.21
2018-02-03T00:02:27.697Z,96.02
2018-02-03T00:03:27.692Z,96.21
2018-02-03T00:04:27.678Z,96.21
2018-02-03T00:05:27.714Z,96.50
2018-02-03T00:06:27.721Z,97.44
2018-02-03T00:07:27.675Z,96.97
2018-02-03T00:08:27.669Z,96.12
2018-02-03T00:09:27.658Z,96.31
2018-02-03T00:10:27.662Z,96.12
2018-02-03T00:11:27.691Z,96.31
2018-02-03T00:12:27.647Z,96.31
2018-02-03T00:13:27.699Z,96.21
2018-02-03T00:14:27.645Z,95.93
2018-02-03T00:15:27.634Z,96.40
2018-02-03T00:16:27.676Z,96.31
2018-02-03T00:17:27.624Z,96.59
2018-02-03T00:18:27.620Z,96.02
2018-02-03T00:19:27.618Z,96.12
2018-02-03T00:20:27.619Z,96.78
2018-02-03T00:21:27.664Z,96.40
2018-02-03T00:22:27.609Z,96.40
2018-02-03T00:23:27.607Z,96.21
2018-02-03T00:24:27.595Z,96.50
2018-02-03T00:25:27.600Z,96.88
2018-02-03T00:26:27.622Z,97.35
2018-02-03T00:27:27.616Z,96.69
2018-02-03T00:28:27.576Z,96.21
2018-02-03T00:29:27.582Z,96.88
2018-02-03T00:30:27.568Z,96.31
2018-02-03T00:31:27.601Z,96.78
2018-02-03T00:32:27.569Z,97.25
2018-02-03T00:33:27.564Z,97.35
2018-02-03T00:34:27.557Z,97.35
2018-02-03T00:35:27.548Z,96.69
2018-02-03T00:36:27.593Z,96.21
2018-02-03T00:37:27.549Z,96.50
2018-02-03T00:38:27.539Z,97.06
2018-02-03T00:39:27.531Z,97.06
2018-02-03T00:40:27.525Z,97.35
2018-02-03T00:41:27.572Z,96.88
2018-02-03T00:42:27.600Z,96.97
2018-02-03T00:43:27.522Z,96.97
2018-02-03T00:44:27.514Z,96.50
2018-02-03T00:45:27.502Z,96.31
2018-02-03T00:46:27.546Z,96.21
2018-02-03T00:47:27.541Z,96.97
2018-02-03T00:48:27.498Z,96.40
2018-02-03T00:49:27.486Z,96.78
2018-02-03T00:50:27.508Z,96.21
2018-02-03T00:51:27.491Z,96.31
2018-02-03T00:52:27.524Z,96.59
2018-02-03T00:53:27.949Z,96.88
2018-02-03T00:54:27.471Z,96.21
2018-02-03T00:55:27.470Z,96.50
2018-02-03T00:56:27.454Z,96.59
2018-02-03T00:57:27.649Z,96.31
2018-02-03T00:58:27.461Z,96.78
2018-02-03T00:59:27.444Z,97.16
2018-02-03T01:00:27.453Z,97.25
2018-02-03T01:01:27.431Z,97.63
2018-02-03T01:02:27.481Z,97.16
2018-02-03T01:03:27.433Z,97.25
2018-02-03T01:04:27.420Z,97.63
2018-02-03T01:05:27.425Z,97.06
2018-02-03T01:06:27.411Z,97.25
2018-02-03T01:07:27.461Z,97.54
2018-02-03T01:08:27.412Z,97.82
2018-02-03T01:09:27.398Z,97.25
2018-02-03T01:10:27.404Z,97.06
2018-02-03T01:11:27.433Z,97.35
2018-02-03T01:12:27.384Z,97.35
2018-02-03T01:13:27.420Z,97.25
2018-02-03T01:14:27.384Z,96.69
2018-02-03T01:15:27.381Z,96.40
2018-02-03T01:16:27.368Z,96.31
2018-02-03T01:17:27.366Z,96.40
2018-02-03T01:18:27.404Z,97.63
2018-02-03T01:19:27.362Z,96.88
2018-02-03T01:20:27.350Z,96.78
2018-02-03T01:21:27.345Z,96.12
2018-02-03T01:22:27.342Z,96.12
2018-02-03T01:23:27.392Z,96.78
2018-02-03T01:24:27.332Z,96.78
2018-02-03T01:25:27.338Z,96.21
2018-02-03T01:26:27.361Z,96.50
2018-02-03T01:27:27.327Z,96.78
2018-02-03T01:28:27.313Z,96.59
2018-02-03T01:29:27.359Z,96.83
2018-02-03T01:30:27.314Z,96.83
2018-02-03T01:31:27.310Z,96.26
2018-02-03T01:32:27.306Z,97.39
2018-02-03T01:33:27.291Z,96.54
2018-02-03T01:34:27.343Z,96.35
2018-02-03T01:35:27.291Z,97.58
2018-02-03T01:36:27.324Z,96.64
2018-02-03T01:37:27.272Z,96.07
2018-02-03T01:38:27.269Z,96.64
2018-02-03T01:39:27.303Z,96.64
2018-02-03T01:40:27.269Z,97.39
2018-02-03T01:41:27.261Z,97.30
2018-02-03T01:42:27.263Z,97.20
2018-02-03T01:43:27.255Z,95.97
2018-02-03T01:44:27.291Z,96.64
2018-02-03T01:45:27.236Z,97.30
2018-02-03T01:46:27.241Z,97.20
2018-02-03T01:47:27.236Z,97.58
2018-02-03T01:48:27.221Z,97.11
2018-02-03T01:49:27.261Z,97.39
2018-02-03T01:50:27.213Z,97.11
2018-02-03T01:51:27.247Z,96.73
2018-02-03T01:52:27.203Z,97.30
2018-02-03T01:53:27.197Z,97.20
2018-02-03T01:54:27.203Z,97.30
2018-02-03T01:55:27.242Z,97.30
2018-02-03T01:56:27.183Z,96.54
2018-02-03T01:57:27.179Z,96.64
2018-02-03T01:58:27.173Z,96.83
2018-02-03T01:59:27.229Z,97.39
2018-02-03T02:00:27.214Z,97.49
2018-02-03T02:01:27.160Z,97.11
2018-02-03T02:02:27.202Z,97.77
2018-02-03T02:03:27.152Z,97.39
2018-02-03T02:04:27.155Z,97.58
2018-02-03T02:05:27.188Z,98.15
2018-02-03T02:06:27.133Z,98.25
2018-02-03T02:07:27.139Z,98.25
2018-02-03T02:08:27.127Z,97.68
2018-02-03T02:09:27.122Z,98.15
2018-02-03T02:10:27.168Z,98.15
2018-02-03T02:11:27.287Z,97.58
2018-02-03T02:12:27.120Z,98.25
2018-02-03T02:13:27.101Z,97.39
2018-02-03T02:14:27.143Z,97.58
2018-02-03T02:15:27.100Z,98.06
2018-02-03T02:16:27.093Z,98.15
2018-02-03T02:17:27.081Z,98.34
2018-02-03T02:18:27.077Z,98.06
2018-02-03T02:19:27.118Z,98.63
2018-02-03T02:20:27.075Z,98.63
2018-02-03T02:21:27.063Z,99.01
2018-02-03T02:22:27.577Z,97.96
2018-02-03T02:23:27.051Z,98.25
2018-02-03T02:24:27.086Z,98.44
2018-02-03T02:25:27.079Z,97.02
2018-02-03T02:26:27.037Z,97.58
2018-02-03T02:27:27.034Z,98.34
2018-02-03T02:28:27.041Z,98.25
2018-02-03T02:29:27.023Z,98.63
2018-02-03T02:30:27.063Z,98.34
2018-02-03T02:31:27.016Z,97.30
2018-02-03T02:32:27.047Z,98.25
2018-02-03T02:33:27.014Z,97.68
2018-02-03T02:34:27.008Z,97.11
2018-02-03T02:35:27.430Z,98.34
2018-02-03T02:36:26.991Z,97.58
2018-02-03T02:37:26.993Z,97.58
2018-02-03T02:38:26.981Z,96.64
2018-02-03T02:39:26.982Z,97.39
2018-02-03T02:40:27.025Z,97.49
2018-02-03T02:41:26.976Z,97.39
2018-02-03T02:42:27.007Z,97.77
2018-02-03T02:43:26.956Z,97.11
2018-02-03T02:44:27.146Z,96.54
2018-02-03T02:45:26.957Z,97.11
2018-02-03T02:46:26.980Z,97.30
2018-02-03T02:47:26.948Z,96.73
2018-02-03T02:48:26.943Z,96.54
2018-02-03T02:49:26.937Z,96.54
2018-02-03T02:50:26.926Z,96.45
2018-02-03T02:51:26.960Z,96.45
2018-02-03T02:52:26.916Z,96.45
2018-02-03T02:53:26.909Z,96.54
2018-02-03T02:54:26.913Z,97.39
2018-02-03T02:55:26.901Z,98.15
2018-02-03T02:56:26.937Z,98.34
2018-02-03T02:57:27.022Z,97.58
2018-02-03T02:58:26.894Z,97.58
2018-02-03T02:59:26.880Z,97.77
2018-02-03T03:00:26.873Z,97.30
2018-02-03T03:01:26.913Z,96.64
2018-02-03T03:02:26.866Z,97.39
2018-02-03T03:03:26.873Z,97.11
2018-02-03T03:04:26.855Z,97.58
2018-02-03T03:05:26.863Z,97.20
2018-02-03T03:06:26.892Z,97.58
2018-02-03T03:07:26.841Z,97.02
2018-02-03T03:08:26.838Z,97.49
2018-02-03T03:09:26.833Z,97.58
2018-02-03T03:10:26.837Z,97.11
2018-02-03T03:11:26.886Z,97.58
2018-02-03T03:12:26.825Z,97.39
2018-02-03T03:13:26.868Z,96.73
2018-02-03T03:14:26.808Z,96.45
2018-02-03T03:15:26.807Z,96.73
2018-02-03T03:16:26.809Z,96.54
2018-02-03T03:17:27.468Z,96.92
2018-02-03T03:18:26.839Z,96.54
2018-02-03T03:19:26.796Z,95.78
2018-02-03T03:20:26.789Z,95.78
2018-02-03T03:21:26.788Z,96.07
2018-02-03T03:22:26.812Z,96.16
2018-02-03T03:23:26.779Z,95.97
2018-02-03T03:24:26.764Z,96.45
2018-02-03T03:25:26.769Z,95.12
2018-02-03T03:26:26.765Z,96.07
2018-02-03T03:27:26.796Z,95.40
2018-02-03T03:28:26.759Z,95.31
2018-02-03T03:29:26.755Z,95.03
2018-02-03T03:30:26.750Z,94.84
2018-02-03T03:31:26.740Z,94.46
2018-02-03T03:32:26.765Z,94.56
2018-02-03T03:33:26.725Z,94.08
2018-02-03T03:34:26.715Z,94.37
2018-02-03T03:35:26.713Z,94.74
2018-02-03T03:36:26.712Z,95.07
2018-02-03T03:37:26.744Z,94.98
2018-02-03T03:38:26.709Z,94.89
2018-02-03T03:39:26.694Z,94.42
2018-02-03T03:40:26.700Z,94.98
2018-02-03T03:41:26.686Z,94.89
2018-02-03T03:42:26.729Z,94.13
2018-02-03T03:43:26.685Z,94.23
2018-02-03T03:44:26.739Z,94.13
2018-02-03T03:45:26.669Z,94.42
2018-02-03T03:46:26.673Z,94.13
2018-02-03T03:47:26.704Z,94.51
2018-02-03T03:48:26.665Z,94.79
2018-02-03T03:49:26.650Z,93.84
2018-02-03T03:50:26.646Z,93.75
2018-02-03T03:51:26.696Z,93.94
2018-02-03T03:52:26.636Z,95.17
2018-02-03T03:53:26.680Z,94.42
2018-02-03T03:54:27.359Z,94.42
2018-02-03T03:55:26.644Z,94.70
2018-02-03T03:56:26.639Z,93.94
2018-02-03T03:57:26.682Z,94.13
2018-02-03T03:58:26.665Z,93.94
2018-02-03T03:59:26.625Z,94.79
2018-02-03T04:00:26.619Z,95.07
2018-02-03T04:01:26.616Z,94.79
2018-02-03T04:02:26.613Z,94.32
2018-02-03T04:03:26.646Z,94.70
2018-02-03T04:04:26.600Z,94.32
2018-02-03T04:05:26.597Z,94.89
2018-02-03T04:06:26.593Z,94.79
2018-02-03T04:07:26.588Z,94.32
2018-02-03T04:08:26.630Z,94.79
2018-02-03T04:09:26.580Z,94.51
2018-02-03T04:10:26.574Z,94.04
2018-02-03T04:11:26.570Z,94.56
2018-02-03T04:12:26.623Z,93.80
2018-02-03T04:13:26.564Z,93.70
2018-02-03T04:14:26.558Z,94.08
2018-02-03T04:15:26.556Z,94.27
2018-02-03T04:16:26.548Z,94.74
2018-02-03T04:17:26.544Z,95.03
2018-02-03T04:18:26.575Z,94.56
2018-02-03T04:19:26.583Z,94.46
2018-02-03T04:20:26.531Z,94.27
2018-02-03T04:21:26.526Z,94.27
2018-02-03T04:22:26.562Z,94.65
2018-02-03T04:23:26.516Z,95.59
2018-02-03T04:24:26.548Z,95.03
2018-02-03T04:25:26.508Z,95.78
2018-02-03T04:26:26.502Z,96.64
2018-02-03T04:27:26.498Z,96.83
2018-02-03T04:28:26.494Z,97.58
2018-02-03T04:29:26.535Z,97.49
2018-02-03T04:30:26.484Z,97.96
2018-02-03T04:31:26.483Z,98.34
2018-02-03T04:32:26.475Z,98.53
2018-02-03T04:33:26.471Z,98.91
2018-02-03T04:34:26.507Z,99.19
2018-02-03T04:35:26.462Z,99.29
2018-02-03T04:36:26.459Z,98.72
2018-02-03T04:37:26.455Z,97.96
2018-02-03T04:38:26.450Z,98.25
2018-02-03T04:39:26.480Z,98.25
2018-02-03T04:40:26.439Z,98.34
2018-02-03T04:41:26.433Z,97.30
2018-02-03T04:42:26.429Z,96.73
2018-02-03T04:43:26.469Z,96.54
2018-02-03T04:44:26.424Z,96.73
2018-02-03T04:45:26.416Z,97.11
2018-02-03T04:46:26.411Z,97.58
2018-02-03T04:47:26.445Z,97.30
2018-02-03T04:48:26.403Z,97.49
2018-02-03T04:49:26.434Z,97.39
2018-02-03T04:50:26.394Z,96.73
2018-02-03T04:51:26.387Z,97.39
2018-02-03T04:52:26.382Z,96.54
2018-02-03T04:53:26.423Z,97.39
2018-02-03T04:54:26.372Z,97.30
2018-02-03T04:55:26.369Z,97.11
2018-02-03T04:56:26.364Z,96.73
2018-02-03T04:57:26.619Z,97.30
2018-02-03T04:58:26.396Z,97.68
2018-02-03T04:59:26.349Z,97.30
2018-02-03T05:00:26.347Z,97.58
2018-02-03T05:01:26.344Z,97.20
2018-02-03T05:02:26.334Z,97.11
2018-02-03T05:03:26.374Z,97.30
2018-02-03T05:04:26.325Z,97.20
2018-02-03T05:05:26.322Z,97.11
2018-02-03T05:06:26.320Z,97.11
2018-02-03T05:07:26.313Z,97.49
2018-02-03T05:08:26.346Z,98.34
2018-02-03T05:09:26.304Z,97.39
2018-02-03T05:10:26.298Z,97.77
2018-02-03T05:11:26.295Z,97.77
2018-02-03T05:12:26.290Z,97.58
2018-02-03T05:13:26.537Z,98.34
2018-02-03T05:14:26.280Z,97.77
2018-02-03T05:15:26.276Z,98.34
2018-02-03T05:16:26.273Z,98.06
2018-02-03T05:17:26.312Z,97.77
2018-02-03T05:18:26.262Z,97.68
2018-02-03T05:19:26.257Z,98.15
2018-02-03T05:20:26.252Z,98.44
2018-02-03T05:21:26.294Z,98.63
2018-02-03T05:22:26.242Z,99.48
2018-02-03T05:23:26.238Z,99.19
2018-02-03T05:24:26.233Z,99.57
2018-02-03T05:25:26.228Z,99.99
2018-02-03T05:26:26.267Z,99.99
2018-02-03T05:27:26.221Z,99.99
2018-02-03T05:28:26.214Z,99.99
2018-02-03T05:29:26.209Z,99.99
2018-02-03T05:30:26.250Z,99.99
2018-02-03T05:31:26.201Z,99.99
2018-02-03T05:32:26.196Z,99.99
2018-02-03T05:33:26.190Z,99.99
2018-02-03T05:34:26.189Z,99.99
2018-02-03T05:35:26.227Z,99.99
2018-02-03T05:36:26.213Z,99.99
2018-02-03T05:37:26.173Z,99.99
2018-02-03T05:38:26.225Z,99.99
2018-02-03T05:39:26.162Z,99.99
2018-02-03T05:40:26.159Z,99.99
2018-02-03T05:41:26.195Z,99.99
2018-02-03T05:42:26.147Z,99.99
2018-02-03T05:43:26.143Z,99.99
2018-02-03T05:44:26.134Z,99.99
2018-02-03T05:45:26.134Z,99.99
2018-02-03T05:46:26.170Z,99.99
2018-02-03T05:47:26.121Z,99.99
2018-02-03T05:48:26.116Z,99.99
2018-02-03T05:49:26.113Z,99.99
2018-02-03T05:50:26.106Z,99.99
2018-02-03T05:51:26.146Z,99.99
2018-02-03T05:52:26.098Z,99.99
2018-02-03T05:53:26.093Z,99.99
2018-02-03T05:54:26.086Z,99.99
2018-02-03T05:55:26.117Z,99.99
2018-02-03T05:56:26.075Z,99.99
2018-02-03T05:57:26.526Z,99.99
2018-02-03T05:58:26.065Z,99.99
2018-02-03T05:59:26.061Z,99.99
2018-02-03T06:00:26.053Z,99.99
2018-02-03T06:01:26.095Z,99.99
2018-02-03T06:02:26.608Z,99.99
2018-02-03T06:03:26.038Z,99.99
2018-02-03T06:04:26.035Z,99.99
2018-02-03T06:05:26.067Z,99.99
2018-02-03T06:06:26.063Z,99.99
2018-02-03T06:07:26.021Z,99.99
2018-02-03T06:08:26.013Z,99.99
2018-02-03T06:09:26.006Z,99.99
2018-02-03T06:10:26.392Z,99.99
2018-02-03T06:11:26.040Z,99.99
2018-02-03T06:12:25.991Z,99.99
2018-02-03T06:13:25.985Z,99.99
2018-02-03T06:14:25.980Z,99.99
2018-02-03T06:15:26.017Z,99.99
2018-02-03T06:16:26.023Z,99.99
2018-02-03T06:17:25.966Z,99.99
2018-02-03T06:18:25.965Z,99.99
2018-02-03T06:19:25.955Z,99.99
2018-02-03T06:20:25.950Z,99.99
2018-02-03T06:21:25.988Z,99.99
2018-02-03T06:22:25.939Z,99.99
2018-02-03T06:23:25.933Z,99.99
2018-02-03T06:24:25.930Z,99.99
2018-02-03T06:25:25.957Z,99.99
2018-02-03T06:26:25.915Z,99.99
2018-02-03T06:27:25.962Z,99.99
2018-02-03T06:28:25.909Z,99.99
2018-02-03T06:29:25.901Z,99.99
2018-02-03T06:30:25.941Z,99.99
2018-02-03T06:31:25.891Z,99.99
2018-02-03T06:32:25.922Z,99.99
2018-02-03T06:33:25.880Z,99.99
2018-02-03T06:34:26.006Z,99.99
2018-02-03T06:35:25.868Z,99.99
2018-02-03T06:36:25.864Z,99.99
2018-02-03T06:37:25.958Z,99.99
2018-02-03T06:38:25.853Z,99.99
2018-02-03T06:39:25.870Z,99.99
2018-02-03T06:40:25.841Z,99.99
2018-02-03T06:41:25.839Z,99.99
2018-02-03T06:42:25.872Z,99.99
2018-02-03T06:43:25.828Z,99.99
2018-02-03T06:44:26.016Z,99.99
2018-02-03T06:45:25.818Z,99.99
2018-02-03T06:46:25.812Z,99.99
2018-02-03T06:47:25.898Z,99.99
2018-02-03T06:48:25.811Z,99.99
2018-02-03T06:49:25.853Z,99.99
2018-02-03T06:50:25.830Z,99.99
2018-02-03T06:51:25.784Z,99.99
2018-02-03T06:52:25.780Z,99.99
2018-02-03T06:53:25.836Z,99.99
2018-02-03T06:54:25.770Z,99.99
2018-02-03T06:55:25.763Z,99.99
2018-02-03T06:56:25.760Z,99.99
2018-02-03T06:57:25.753Z,99.99
2018-02-03T06:58:25.793Z,99.99
2018-02-03T06:59:25.742Z,99.99
2018-02-03T07:00:25.782Z,99.99
2018-02-03T07:01:25.732Z,99.99
2018-02-03T07:02:25.727Z,99.99
2018-02-03T07:03:25.765Z,99.99
2018-02-03T07:04:25.715Z,99.99
2018-02-03T07:05:25.750Z,99.99
2018-02-03T07:06:25.705Z,99.99
2018-02-03T07:07:25.700Z,99.99
2018-02-03T07:08:25.741Z,99.99
2018-02-03T07:09:25.693Z,99.99
2018-02-03T07:10:25.727Z,99.99
2018-02-03T07:11:25.679Z,99.99
2018-02-03T07:12:25.674Z,99.99
2018-02-03T07:13:25.716Z,99.99
2018-02-03T07:14:25.667Z,99.99
2018-02-03T07:15:25.659Z,99.99
2018-02-03T07:16:25.656Z,99.99
2018-02-03T07:17:25.704Z,99.99
2018-02-03T07:18:25.691Z,99.99
2018-02-03T07:19:25.638Z,99.99
2018-02-03T07:20:25.670Z,99.99
2018-02-03T07:21:25.628Z,99.99
2018-02-03T07:22:25.621Z,99.99
2018-02-03T07:23:25.619Z,99.99
2018-02-03T07:24:25.657Z,99.99
2018-02-03T07:25:25.608Z,99.99
2018-02-03T07:26:25.604Z,99.99
2018-02-03T07:27:25.600Z,99.99
2018-02-03T07:28:25.596Z,99.99
2018-02-03T07:29:25.633Z,99.99
2018-02-03T07:30:25.581Z,99.99
2018-02-03T07:31:25.581Z,99.99
2018-02-03T07:32:25.572Z,99.99
2018-02-03T07:33:25.565Z,99.99
2018-02-03T07:34:25.604Z,99.99
2018-02-03T07:35:25.558Z,99.99
2018-02-03T07:36:25.560Z,99.99
2018-02-03T07:37:25.547Z,99.99
2018-02-03T07:38:25.542Z,99.99
2018-02-03T07:39:25.575Z,99.99
2018-02-03T07:40:25.531Z,99.99
2018-02-03T07:41:25.531Z,99.99
2018-02-03T07:42:25.520Z,99.99
2018-02-03T07:43:25.516Z,99.99
2018-02-03T07:44:25.565Z,99.99
2018-02-03T07:45:25.507Z,99.99
2018-02-03T07:46:25.500Z,99.99
2018-02-03T07:47:25.497Z,99.99
2018-02-03T07:48:25.494Z,99.99
2018-02-03T07:49:25.592Z,99.99
2018-02-03T07:50:25.483Z,99.99
2018-02-03T07:51:25.477Z,99.99
2018-02-03T07:52:25.483Z,99.99
2018-02-03T07:53:25.467Z,99.99
2018-02-03T07:54:25.463Z,99.99
2018-02-03T07:55:25.499Z,99.99
2018-02-03T07:56:25.799Z,99.99
2018-02-03T07:57:25.445Z,99.99
2018-02-03T07:58:25.441Z,99.99
2018-02-03T07:59:25.500Z,99.99
2018-02-03T08:00:25.479Z,99.99
2018-02-03T08:01:25.427Z,99.99
2018-02-03T08:02:25.422Z,99.99
2018-02-03T08:03:25.417Z,99.99
2018-02-03T08:04:25.426Z,99.99
2018-02-03T08:05:25.451Z,99.99
2018-02-03T08:06:25.401Z,99.99
2018-02-03T08:07:25.405Z,99.99
2018-02-03T08:08:25.393Z,99.99
2018-02-03T08:09:25.388Z,99.99
2018-02-03T08:10:25.424Z,99.99
2018-02-03T08:11:25.383Z,99.99
2018-02-03T08:12:25.374Z,99.99
2018-02-03T08:13:25.373Z,99.99
2018-02-03T08:14:25.364Z,99.99
2018-02-03T08:15:25.403Z,99.99
2018-02-03T08:16:25.358Z,99.99
2018-02-03T08:17:26.015Z,99.99
2018-02-03T08:18:25.345Z,99.99
2018-02-03T08:19:25.378Z,99.99
2018-02-03T08:20:25.336Z,99.99
2018-02-03T08:21:25.367Z,99.99
2018-02-03T08:22:25.325Z,99.99
2018-02-03T08:23:25.365Z,99.99
2018-02-03T08:24:25.316Z,99.99
2018-02-03T08:25:25.358Z,99.99
2018-02-03T08:26:25.305Z,99.99
2018-02-03T08:27:25.304Z,99.99
2018-02-03T08:28:25.297Z,99.99
2018-02-03T08:29:25.337Z,99.99
2018-02-03T08:30:25.286Z,99.99
2018-02-03T08:31:25.284Z,99.99
2018-02-03T08:32:25.279Z,99.99
2018-02-03T08:33:25.274Z,99.99
2018-02-03T08:34:25.309Z,99.99
2018-02-03T08:35:25.263Z,99.99
2018-02-03T08:36:25.302Z,99.99
2018-02-03T08:37:25.253Z,99.99
2018-02-03T08:38:25.305Z,99.99
2018-02-03T08:39:25.288Z,99.99
2018-02-03T08:40:25.241Z,99.99
2018-02-03T08:41:25.236Z,99.99
2018-02-03T08:42:25.268Z,99.99
2018-02-03T08:43:25.227Z,99.99
2018-02-03T08:44:25.226Z,99.99
2018-02-03T08:45:25.221Z,99.99
2018-02-03T08:46:25.215Z,99.99
2018-02-03T08:47:25.256Z,99.99
2018-02-03T08:48:25.249Z,99.81
2018-02-03T08:49:25.203Z,99.81
2018-02-03T08:50:25.198Z,99.62
2018-02-03T08:51:25.195Z,99.62
2018-02-03T08:52:25.231Z,99.24
2018-02-03T08:53:25.186Z,98.86
2018-02-03T08:54:25.197Z,99.99
2018-02-03T08:55:25.179Z,99.99
2018-02-03T08:56:25.176Z,99.99
2018-02-03T08:57:25.217Z,99.99
2018-02-03T08:58:25.167Z,99.99
2018-02-03T08:59:25.203Z,99.99
2018-02-03T09:00:25.159Z,99.99
2018-02-03T09:01:25.154Z,99.99
2018-02-03T09:02:25.152Z,99.99
2018-02-03T09:03:25.194Z,99.99
2018-02-03T09:04:25.183Z,98.96
2018-02-03T09:05:25.139Z,99.15
2018-02-03T09:06:25.136Z,99.15
2018-02-03T09:07:25.130Z,98.77
2018-02-03T09:08:25.171Z,99.52
2018-02-03T09:09:25.125Z,99.43
2018-02-03T09:10:25.120Z,98.58
2018-02-03T09:11:25.120Z,98.96
2018-02-03T09:12:25.118Z,99.62
2018-02-03T09:13:25.155Z,99.01
2018-02-03T09:14:25.106Z,98.63
2018-02-03T09:15:25.103Z,97.87
2018-02-03T09:16:25.101Z,98.44
2018-02-03T09:17:25.099Z,96.64
2018-02-03T09:18:25.133Z,97.30
2018-02-03T09:19:25.095Z,97.54
2018-02-03T09:20:25.089Z,95.74
2018-02-03T09:21:25.084Z,95.36
2018-02-03T09:22:25.083Z,95.65
2018-02-03T09:23:25.124Z,94.98
2018-02-03T09:24:25.077Z,95.98
2018-02-03T09:25:25.074Z,94.08
2018-02-03T09:26:25.106Z,94.74
2018-02-03T09:27:25.070Z,96.26
2018-02-03T09:28:25.113Z,96.17
2018-02-03T09:29:25.064Z,97.21
2018-02-03T09:30:25.063Z,97.87
2018-02-03T09:31:25.058Z,97.21
2018-02-03T09:32:25.097Z,97.30
2018-02-03T09:33:25.093Z,96.64
2018-02-03T09:34:25.053Z,95.50
2018-02-03T09:35:25.048Z,95.31
2018-02-03T09:36:25.046Z,96.83
2018-02-03T09:37:25.045Z,95.69
2018-02-03T09:38:25.077Z,96.07
2018-02-03T09:39:25.039Z,96.92
2018-02-03T09:40:25.038Z,96.17
2018-02-03T09:41:25.033Z,96.26
2018-02-03T09:42:25.075Z,96.36
2018-02-03T09:43:25.027Z,95.41
2018-02-03T09:44:25.025Z,95.98
2018-02-03T09:45:25.022Z,95.31
2018-02-03T09:46:25.019Z,94.46
2018-02-03T09:47:25.061Z,95.36
2018-02-03T09:48:25.058Z,95.55
2018-02-03T09:49:25.019Z,95.45
2018-02-03T09:50:25.007Z,96.97
2018-02-03T09:51:25.008Z,97.25
2018-02-03T09:52:25.000Z,97.25
2018-02-03T09:53:25.043Z,97.25
2018-02-03T09:54:24.992Z,97.25
2018-02-03T09:55:24.990Z,97.63
2018-02-03T09:56:25.015Z,97.82
2018-02-03T09:57:25.025Z,98.68
2018-02-03T09:58:24.981Z,98.58
2018-02-03T09:59:24.978Z,98.68
2018-02-03T10:00:24.976Z,98.68
2018-02-03T10:01:24.974Z,98.58
2018-02-03T10:02:25.002Z,99.52
2018-02-03T10:03:24.979Z,98.96
2018-02-03T10:04:24.960Z,99.05
2018-02-03T10:05:24.955Z,99.71
2018-02-03T10:06:24.951Z,99.99
2018-02-03T10:07:24.991Z,99.99
2018-02-03T10:08:24.942Z,99.99
2018-02-03T10:09:24.979Z,99.99
2018-02-03T10:10:24.941Z,99.99
2018-02-03T10:11:24.934Z,99.99
2018-02-03T10:12:24.968Z,99.24
2018-02-03T10:13:24.926Z,99.99
2018-02-03T10:14:24.919Z,99.90
2018-02-03T10:15:24.917Z,99.99
2018-02-03T10:16:24.911Z,99.99
2018-02-03T10:17:24.946Z,99.99
2018-02-03T10:18:25.324Z,99.99
2018-02-03T10:19:24.897Z,99.99
2018-02-03T10:20:24.894Z,99.99
2018-02-03T10:21:24.895Z,99.99
2018-02-03T10:22:24.922Z,99.99
2018-02-03T10:23:24.883Z,99.99
2018-02-03T10:24:24.883Z,99.99
2018-02-03T10:25:24.875Z,99.99
2018-02-03T10:26:24.869Z,99.99
2018-02-03T10:27:24.902Z,99.99
2018-02-03T10:28:24.863Z,99.99
2018-02-03T10:29:24.857Z,99.99
2018-02-03T10:30:24.853Z,99.99
2018-02-03T10:31:24.847Z,99.99
2018-02-03T10:32:24.888Z,99.99
2018-02-03T10:33:24.840Z,99.99
2018-02-03T10:34:24.838Z,99.99
2018-02-03T10:35:24.833Z,99.99
2018-02-03T10:36:24.828Z,99.99
2018-02-03T10:37:24.868Z,99.99
2018-02-03T10:38:24.820Z,99.99
2018-02-03T10:39:24.825Z,99.99
2018-02-03T10:40:24.810Z,99.99
2018-02-03T10:41:24.827Z,99.99
2018-02-03T10:42:24.839Z,99.99
2018-02-03T10:43:24.913Z,99.99
2018-02-03T10:44:24.794Z,99.99
2018-02-03T10:45:25.780Z,99.99
2018-02-03T10:46:24.785Z,99.99
2018-02-03T10:47:24.865Z,99.99
2018-02-03T10:48:24.775Z,99.99
2018-02-03T10:49:24.837Z,99.99
2018-02-03T10:50:24.768Z,99.99
2018-02-03T10:51:24.785Z,99.99
2018-02-03T10:52:24.853Z,99.99
2018-02-03T10:53:24.817Z,99.99
2018-02-03T10:54:24.816Z,97.58
2018-02-03T10:55:24.928Z,97.11
2018-02-03T10:56:24.743Z,98.34
2018-02-03T10:57:24.786Z,97.20
2018-02-03T10:58:24.735Z,96.07
2018-02-03T10:59:24.728Z,96.54
2018-02-03T11:00:24.724Z,97.11
2018-02-03T11:01:24.763Z,97.77
2018-02-03T11:02:24.714Z,98.15
2018-02-03T11:03:24.709Z,99.19
2018-02-03T11:04:24.705Z,99.99
2018-02-03T11:05:24.700Z,99.99
2018-02-03T11:06:24.741Z,99.99
2018-02-03T11:07:25.099Z,99.99
2018-02-03T11:08:24.737Z,99.99
2018-02-03T11:09:24.683Z,99.99
2018-02-03T11:10:24.678Z,99.99
2018-02-03T11:11:24.713Z,99.99
2018-02-03T11:12:25.053Z,99.99
2018-02-03T11:13:24.711Z,99.99
2018-02-03T11:14:24.718Z,99.99
2018-02-03T11:15:24.655Z,99.99
2018-02-03T11:16:24.692Z,99.99
2018-02-03T11:17:24.648Z,99.95
2018-02-03T11:18:24.642Z,99.76
2018-02-03T11:19:24.680Z,99.99
2018-02-03T11:20:24.633Z,99.99
2018-02-03T11:21:24.636Z,99.85
2018-02-03T11:22:24.626Z,99.99
2018-02-03T11:23:24.725Z,99.99
2018-02-03T11:24:25.885Z,99.99
2018-02-03T11:25:25.530Z,99.99
2018-02-03T11:26:25.337Z,99.33
2018-02-03T11:27:24.610Z,99.66
2018-02-03T11:28:27.241Z,99.05
2018-02-03T11:29:24.597Z,99.43
2018-02-03T11:30:24.592Z,99.43
2018-02-03T11:31:24.609Z,99.43
2018-02-03T11:32:24.629Z,99.62
2018-02-03T11:33:24.614Z,98.39
2018-02-03T11:34:24.575Z,98.30
2018-02-03T11:35:24.578Z,98.39
2018-02-03T11:36:24.576Z,97.54
2018-02-03T11:37:24.606Z,97.35
2018-02-03T11:38:24.571Z,97.30
2018-02-03T11:39:24.600Z,97.11
2018-02-03T11:40:24.559Z,96.45
2018-02-03T11:41:24.551Z,95.41
2018-02-03T11:42:24.547Z,94.84
2018-02-03T11:43:24.612Z,94.56
2018-02-03T11:44:24.579Z,95.60
2018-02-03T11:45:24.570Z,94.84
2018-02-03T11:46:24.672Z,93.61
2018-02-03T11:47:24.588Z,93.61
2018-02-03T11:48:24.597Z,92.76
2018-02-03T11:49:24.597Z,93.23
2018-02-03T11:50:24.530Z,94.27
2018-02-03T11:51:24.519Z,92.66
2018-02-03T11:52:24.552Z,92.94
2018-02-03T11:53:24.513Z,91.81
2018-02-03T11:54:24.547Z,89.34
2018-02-03T11:55:25.353Z,89.82
2018-02-03T11:56:24.504Z,90.01
2018-02-03T11:57:24.500Z,90.10
2018-02-03T11:58:24.498Z,89.34
2018-02-03T11:59:24.540Z,88.54
2018-02-03T12:00:26.236Z,88.06
2018-02-03T12:01:26.236Z,87.97
2018-02-03T12:02:27.793Z,87.68
2018-02-03T12:03:25.553Z,87.49
2018-02-03T12:05:24.494Z,88.25
2018-02-03T12:06:24.481Z,88.25
2018-02-03T12:07:27.240Z,88.73
2018-02-03T12:08:25.460Z,88.44
2018-02-03T12:09:24.846Z,88.25
2018-02-03T12:10:25.882Z,87.77
2018-02-03T12:11:25.358Z,88.16
2018-02-03T12:12:27.260Z,87.77
2018-02-03T12:13:26.238Z,87.63
2018-02-03T12:14:26.891Z,87.45
2018-02-03T12:15:24.509Z,85.78
2018-02-03T12:16:24.460Z,85.74
2018-02-03T12:17:24.488Z,84.12
2018-02-03T12:18:24.447Z,84.12
2018-02-03T12:19:24.535Z,83.17
2018-02-03T12:20:24.453Z,83.74
2018-02-03T12:21:25.379Z,84.69
2018-02-03T12:22:24.452Z,84.98
2018-02-03T12:23:24.448Z,85.45
2018-02-03T12:24:24.442Z,84.98
2018-02-03T12:25:24.443Z,85.83
2018-02-03T12:26:24.486Z,85.74
2018-02-03T12:27:24.680Z,87.06
2018-02-03T12:28:24.440Z,86.11
2018-02-03T12:29:24.616Z,87.73
2018-02-03T12:30:25.235Z,84.31
2018-02-03T12:31:24.577Z,85.55
2018-02-03T12:32:25.487Z,87.16
2018-02-03T12:33:24.447Z,85.55
2018-02-03T12:34:25.346Z,84.69
2018-02-03T12:35:24.593Z,85.22
2018-02-03T12:36:24.477Z,85.36
2018-02-03T12:37:24.432Z,85.55
2018-02-03T12:38:24.539Z,85.31
2018-02-03T12:39:24.445Z,85.78
2018-02-03T12:40:24.428Z,86.74
2018-02-03T12:41:24.463Z,87.30
2018-02-03T12:42:24.423Z,87.02
2018-02-03T12:43:24.423Z,86.03
2018-02-03T12:44:24.422Z,87.16
2018-02-03T12:45:24.414Z,87.83
2018-02-03T12:46:24.459Z,87.83
2018-02-03T12:47:24.408Z,88.02
2018-02-03T12:48:24.411Z,88.30
2018-02-03T12:49:24.408Z,87.35
2018-02-03T12:50:24.415Z,87.83
2018-02-03T12:51:24.458Z,89.15
2018-02-03T12:52:24.400Z,87.54
2018-02-03T12:53:24.399Z,87.88